createdAt,value
2018-12-20T00:00:55.716Z,20.15
2018-12-20T00:01:58.289Z,20.15
2018-12-20T00:03:00.762Z,20.16
2018-12-20T00:04:03.258Z,20.18
2018-12-20T00:05:05.836Z,20.18
2018-12-20T00:06:08.450Z,20.18
2018-12-20T00:07:10.986Z,20.18
2018-12-20T00:08:13.532Z,20.18
2018-12-20T00:09:16.088Z,20.18
2018-12-20T00:10:18.651Z,20.17
2018-12-20T00:11:21.171Z,20.17
2018-12-20T00:12:24.093Z,20.17
2018-12-20T00:13:26.566Z,20.17
2018-12-20T00:14:30.092Z,20.16
2018-12-20T00:15:32.807Z,20.17
2018-12-20T00:16:35.278Z,20.18
2018-12-20T00:17:43.660Z,20.18
2018-12-20T00:18:46.199Z,20.19
2018-12-20T00:19:48.695Z,20.19
2018-12-20T00:20:51.166Z,20.19
2018-12-20T00:21:53.755Z,20.19
2018-12-20T00:22:56.266Z,20.20
2018-12-20T00:23:58.762Z,20.22
2018-12-20T00:25:01.364Z,20.21
2018-12-20T00:26:03.921Z,20.21
2018-12-20T00:27:06.632Z,20.21
2018-12-20T00:28:09.121Z,20.20
2018-12-20T00:29:11.772Z,20.20
2018-12-20T00:30:14.548Z,20.20
2018-12-20T00:31:17.092Z,20.19
2018-12-20T00:32:19.746Z,20.20
2018-12-20T00:33:22.374Z,20.19
2018-12-20T00:34:24.866Z,20.21
2018-12-20T00:35:27.465Z,20.20
2018-12-20T00:36:30.175Z,20.23
2018-12-20T00:37:33.016Z,20.24
2018-12-20T00:38:35.707Z,20.26
2018-12-20T00:39:38.378Z,20.27
2018-12-20T00:40:40.950Z,20.26
2018-12-20T00:41:43.560Z,20.29
2018-12-20T00:42:46.161Z,20.27
2018-12-20T00:43:48.940Z,20.30
2018-12-20T00:44:51.536Z,20.30
2018-12-20T00:45:54.034Z,20.29
2018-12-20T00:46:56.558Z,20.29
2018-12-20T00:47:59.030Z,20.27
2018-12-20T00:49:01.541Z,20.27
2018-12-20T00:50:05.001Z,20.25
2018-12-20T00:51:07.749Z,20.25
2018-12-20T00:52:10.452Z,20.26
2018-12-20T00:53:13.054Z,20.25
2018-12-20T00:54:15.543Z,20.25
2018-12-20T00:55:18.050Z,20.25
2018-12-20T00:56:20.631Z,20.27
2018-12-20T00:57:23.270Z,20.27
2018-12-20T00:58:25.996Z,20.28
2018-12-20T00:59:28.722Z,20.29
2018-12-20T01:00:31.277Z,20.29
2018-12-20T01:01:33.937Z,20.28
2018-12-20T01:02:36.521Z,20.29
2018-12-20T01:03:38.985Z,20.29
2018-12-20T01:04:41.455Z,20.28
2018-12-20T01:05:44.215Z,20.29
2018-12-20T01:06:46.941Z,20.30
2018-12-20T01:07:49.589Z,20.33
2018-12-20T01:08:52.300Z,20.31
2018-12-20T01:09:54.843Z,20.29
2018-12-20T01:10:57.437Z,20.29
2018-12-20T01:12:00.075Z,20.28
2018-12-20T01:13:02.798Z,20.28
2018-12-20T01:14:06.168Z,20.28
2018-12-20T01:15:08.807Z,20.28
2018-12-20T01:16:11.441Z,20.29
2018-12-20T01:17:14.014Z,20.30
2018-12-20T01:18:16.533Z,20.29
2018-12-20T01:19:19.267Z,20.30
2018-12-20T01:20:21.866Z,20.30
2018-12-20T01:21:24.352Z,20.30
2018-12-20T01:22:26.859Z,20.30
2018-12-20T01:23:29.532Z,20.31
2018-12-20T01:24:32.011Z,20.31
2018-12-20T01:25:34.674Z,20.31
2018-12-20T01:26:37.290Z,20.31
2018-12-20T01:27:39.923Z,20.31
2018-12-20T01:28:42.633Z,20.30
2018-12-20T01:29:45.199Z,20.29
2018-12-20T01:30:47.817Z,20.28
2018-12-20T01:31:50.527Z,20.29
2018-12-20T01:32:53.104Z,20.30
2018-12-20T01:33:55.735Z,20.32
2018-12-20T01:34:58.314Z,20.33
2018-12-20T01:36:00.895Z,20.32
2018-12-20T01:37:03.517Z,20.32
2018-12-20T01:38:06.080Z,20.33
2018-12-20T01:39:08.587Z,20.35
2018-12-20T01:40:11.186Z,20.34
2018-12-20T01:41:13.648Z,20.33
2018-12-20T01:42:16.115Z,20.34
2018-12-20T01:43:18.606Z,20.33
2018-12-20T01:44:21.103Z,20.34
2018-12-20T01:45:23.742Z,20.33
2018-12-20T01:46:26.452Z,20.33
2018-12-20T01:47:29.122Z,20.32
2018-12-20T01:48:31.739Z,20.32
2018-12-20T01:49:34.279Z,20.30
2018-12-20T01:50:36.764Z,20.31
2018-12-20T01:51:39.383Z,20.32
2018-12-20T01:52:41.951Z,20.33
2018-12-20T01:53:44.704Z,20.33
2018-12-20T01:54:47.402Z,20.33
2018-12-20T01:55:49.956Z,20.34
2018-12-20T01:56:52.452Z,20.33
2018-12-20T01:57:54.944Z,20.35
2018-12-20T01:58:57.454Z,20.36
2018-12-20T02:00:00.148Z,20.34
2018-12-20T02:01:02.744Z,20.35
2018-12-20T02:02:05.381Z,20.35
2018-12-20T02:03:07.929Z,20.35
2018-12-20T02:04:10.428Z,20.34
2018-12-20T02:05:13.053Z,20.33
2018-12-20T02:06:15.674Z,20.34
2018-12-20T02:07:18.310Z,20.35
2018-12-20T02:08:20.918Z,20.33
2018-12-20T02:09:23.476Z,20.33
2018-12-20T02:10:26.100Z,20.33
2018-12-20T02:11:28.817Z,20.34
2018-12-20T02:12:31.353Z,20.35
2018-12-20T02:13:33.982Z,20.35
2018-12-20T02:14:36.759Z,20.35
2018-12-20T02:15:39.284Z,20.35
2018-12-20T02:16:41.760Z,20.37
2018-12-20T02:17:44.293Z,20.39
2018-12-20T02:18:46.888Z,20.37
2018-12-20T02:19:49.510Z,20.36
2018-12-20T02:20:52.117Z,20.36
2018-12-20T02:21:54.866Z,20.37
2018-12-20T02:22:57.689Z,20.38
2018-12-20T02:24:00.306Z,20.37
2018-12-20T02:25:02.921Z,20.37
2018-12-20T02:26:05.462Z,20.36
2018-12-20T02:27:08.053Z,20.34
2018-12-20T02:28:10.567Z,20.35
2018-12-20T02:29:13.071Z,20.34
2018-12-20T02:30:15.643Z,20.35
2018-12-20T02:31:18.264Z,20.35
2018-12-20T02:32:20.905Z,20.35
2018-12-20T02:33:23.828Z,20.35
2018-12-20T02:34:26.823Z,20.36
2018-12-20T02:35:29.751Z,20.36
2018-12-20T02:36:32.578Z,20.37
2018-12-20T02:37:35.343Z,20.39
2018-12-20T02:38:37.913Z,20.39
2018-12-20T02:39:40.569Z,20.40
2018-12-20T02:40:43.095Z,20.39
2018-12-20T02:41:45.584Z,20.40
2018-12-20T02:42:48.058Z,20.41
2018-12-20T02:43:50.556Z,20.40
2018-12-20T02:44:53.118Z,20.40
2018-12-20T02:45:55.665Z,20.39
2018-12-20T02:46:58.129Z,20.39
2018-12-20T02:48:00.607Z,20.39
2018-12-20T02:49:03.530Z,20.40
2018-12-20T02:50:06.280Z,20.42
2018-12-20T02:51:08.862Z,20.43
2018-12-20T02:52:11.632Z,20.43
2018-12-20T02:53:14.260Z,20.45
2018-12-20T02:54:16.766Z,20.43
2018-12-20T02:55:19.279Z,20.44
2018-12-20T02:56:21.882Z,20.44
2018-12-20T02:57:24.788Z,20.45
2018-12-20T02:58:27.607Z,20.45
2018-12-20T02:59:30.295Z,20.45
2018-12-20T03:00:32.996Z,20.46
2018-12-20T03:01:35.501Z,20.45
2018-12-20T03:02:38.100Z,20.46
2018-12-20T03:03:40.856Z,20.45
2018-12-20T03:04:43.620Z,20.44
2018-12-20T03:05:46.509Z,20.44
2018-12-20T03:06:49.214Z,20.44
2018-12-20T03:07:51.813Z,20.44
2018-12-20T03:08:54.484Z,20.45
2018-12-20T03:09:57.168Z,20.46
2018-12-20T03:10:59.835Z,20.46
2018-12-20T03:12:02.423Z,20.45
2018-12-20T03:13:05.140Z,20.47
2018-12-20T03:14:07.711Z,20.47
2018-12-20T03:15:10.311Z,20.47
2018-12-20T03:16:14.625Z,20.46
2018-12-20T03:17:17.461Z,20.47
2018-12-20T03:18:20.189Z,20.47
2018-12-20T03:19:22.861Z,20.47
2018-12-20T03:20:25.659Z,20.46
2018-12-20T03:21:28.324Z,20.45
2018-12-20T03:22:30.902Z,20.46
2018-12-20T03:23:33.521Z,20.45
2018-12-20T03:24:36.122Z,20.46
2018-12-20T03:25:38.755Z,20.43
2018-12-20T03:26:41.513Z,20.44
2018-12-20T03:27:44.265Z,20.44
2018-12-20T03:28:46.839Z,20.44
2018-12-20T03:29:49.488Z,20.46
2018-12-20T03:30:52.479Z,20.47
2018-12-20T03:31:55.191Z,20.51
2018-12-20T03:32:58.181Z,20.49
2018-12-20T03:34:00.929Z,20.49
2018-12-20T03:35:03.555Z,20.50
2018-12-20T03:36:06.101Z,20.51
2018-12-20T03:37:08.716Z,20.50
2018-12-20T03:38:11.232Z,20.50
2018-12-20T03:39:13.757Z,20.50
2018-12-20T03:40:16.325Z,20.49
2018-12-20T03:41:18.841Z,20.48
2018-12-20T03:42:21.319Z,20.48
2018-12-20T03:43:23.922Z,20.49
2018-12-20T03:44:26.536Z,20.48
2018-12-20T03:45:29.369Z,20.45
2018-12-20T03:46:32.071Z,20.46
2018-12-20T03:47:34.594Z,20.46
2018-12-20T03:48:37.337Z,20.46
2018-12-20T03:49:39.933Z,20.46
2018-12-20T03:50:42.410Z,20.47
2018-12-20T03:51:45.066Z,20.47
2018-12-20T03:52:47.766Z,20.47
2018-12-20T03:53:50.556Z,20.48
2018-12-20T03:54:53.566Z,20.49
2018-12-20T03:55:56.392Z,20.49
2018-12-20T03:56:59.180Z,20.49
2018-12-20T03:58:01.875Z,20.49
2018-12-20T03:59:04.546Z,20.50
2018-12-20T04:00:07.861Z,20.49
2018-12-20T04:01:10.420Z,20.48
2018-12-20T04:02:13.139Z,20.48
2018-12-20T04:03:15.863Z,20.47
2018-12-20T04:04:18.617Z,20.46
2018-12-20T04:05:21.393Z,20.46
2018-12-20T04:06:23.988Z,20.45
2018-12-20T04:07:26.573Z,20.43
2018-12-20T04:08:29.216Z,20.43
2018-12-20T04:09:31.746Z,20.41
2018-12-20T04:10:34.248Z,20.41
2018-12-20T04:11:36.992Z,20.38
2018-12-20T04:12:39.771Z,20.38
2018-12-20T04:13:42.425Z,20.37
2018-12-20T04:14:45.099Z,20.37
2018-12-20T04:15:47.706Z,20.38
2018-12-20T04:16:50.269Z,20.39
2018-12-20T04:17:52.831Z,20.38
2018-12-20T04:18:55.333Z,20.38
2018-12-20T04:19:57.897Z,20.39
2018-12-20T04:21:00.621Z,20.40
2018-12-20T04:22:03.198Z,20.40
2018-12-20T04:23:06.031Z,20.40
2018-12-20T04:24:08.845Z,20.41
2018-12-20T04:25:11.482Z,20.41
2018-12-20T04:26:14.092Z,20.43
2018-12-20T04:27:16.818Z,20.42
2018-12-20T04:28:19.457Z,20.41
2018-12-20T04:29:22.171Z,20.41
2018-12-20T04:30:24.812Z,20.41
2018-12-20T04:31:27.404Z,20.44
2018-12-20T04:32:30.137Z,20.41
2018-12-20T04:33:32.705Z,20.41
2018-12-20T04:34:35.192Z,20.40
2018-12-20T04:35:37.688Z,20.41
2018-12-20T04:36:40.166Z,20.43
2018-12-20T04:37:42.903Z,20.43
2018-12-20T04:38:45.713Z,20.44
2018-12-20T04:39:48.451Z,20.46
2018-12-20T04:40:51.122Z,20.46
2018-12-20T04:41:53.687Z,20.47
2018-12-20T04:42:56.300Z,20.46
2018-12-20T04:43:58.978Z,20.46
2018-12-20T04:45:01.524Z,20.48
2018-12-20T04:46:04.207Z,20.49
2018-12-20T04:47:06.819Z,20.49
2018-12-20T04:48:09.306Z,20.49
2018-12-20T04:49:11.825Z,20.48
2018-12-20T04:50:14.567Z,20.49
2018-12-20T04:51:17.380Z,20.50
2018-12-20T04:52:20.021Z,20.48
2018-12-20T04:53:22.571Z,20.50
2018-12-20T04:54:25.254Z,20.50
2018-12-20T04:55:28.077Z,20.50
2018-12-20T04:56:30.917Z,20.50
2018-12-20T04:57:33.861Z,20.51
2018-12-20T04:58:36.785Z,20.53
2018-12-20T04:59:39.418Z,20.54
2018-12-20T05:00:41.956Z,20.53
2018-12-20T05:01:44.776Z,20.54
2018-12-20T05:02:47.414Z,20.54
2018-12-20T05:03:49.920Z,20.56
2018-12-20T05:04:52.502Z,20.55
2018-12-20T05:05:55.129Z,20.54
2018-12-20T05:06:57.780Z,20.55
2018-12-20T05:08:00.434Z,20.54
2018-12-20T05:09:04.785Z,20.54
2018-12-20T05:10:07.531Z,20.54
2018-12-20T05:11:10.114Z,20.54
2018-12-20T05:12:12.607Z,20.53
2018-12-20T05:13:15.186Z,20.53
2018-12-20T05:14:17.639Z,20.52
2018-12-20T05:15:20.305Z,20.53
2018-12-20T05:16:23.090Z,20.52
2018-12-20T05:17:25.602Z,20.51
2018-12-20T05:18:28.355Z,20.50
2018-12-20T05:19:31.197Z,20.50
2018-12-20T05:20:33.765Z,20.48
2018-12-20T05:21:36.448Z,20.46
2018-12-20T05:22:39.076Z,20.46
2018-12-20T05:23:41.576Z,20.45
2018-12-20T05:24:44.301Z,20.44
2018-12-20T05:25:47.036Z,20.43
2018-12-20T05:26:49.815Z,20.43
2018-12-20T05:28:54.582Z,20.40
2018-12-20T05:29:57.464Z,20.39
2018-12-20T05:31:00.313Z,20.38
2018-12-20T05:32:03.035Z,20.38
2018-12-20T05:33:05.635Z,20.37
2018-12-20T05:34:08.311Z,20.37
2018-12-20T05:35:11.086Z,20.35
2018-12-20T05:36:13.749Z,20.34
2018-12-20T05:37:16.231Z,20.33
2018-12-20T05:38:18.719Z,20.33
2018-12-20T05:39:21.538Z,20.31
2018-12-20T05:40:24.191Z,20.30
2018-12-20T05:41:27.014Z,20.28
2018-12-20T05:42:29.553Z,20.29
2018-12-20T05:43:32.157Z,20.28
2018-12-20T05:44:34.862Z,20.26
2018-12-20T05:45:37.453Z,20.24
2018-12-20T05:46:40.081Z,20.23
2018-12-20T05:47:42.824Z,20.21
2018-12-20T05:48:45.473Z,20.20
2018-12-20T05:49:48.090Z,20.18
2018-12-20T05:50:50.788Z,20.19
2018-12-20T05:51:53.465Z,20.19
2018-12-20T05:52:55.928Z,20.17
2018-12-20T05:53:58.400Z,20.16
2018-12-20T05:55:01.437Z,20.15
2018-12-20T05:56:04.089Z,20.13
2018-12-20T05:57:06.782Z,20.12
2018-12-20T05:58:09.397Z,20.12
2018-12-20T05:59:11.908Z,20.09
2018-12-20T06:00:14.500Z,20.08
2018-12-20T06:01:16.978Z,20.08
2018-12-20T06:02:19.485Z,20.07
2018-12-20T06:03:22.076Z,20.06
2018-12-20T06:04:24.726Z,20.05
2018-12-20T06:05:27.350Z,20.04
2018-12-20T06:06:29.838Z,20.04
2018-12-20T06:07:32.363Z,20.03
2018-12-20T06:08:35.103Z,20.02
2018-12-20T06:09:37.878Z,20.01
2018-12-20T06:10:40.685Z,20.00
2018-12-20T06:11:43.542Z,19.99
2018-12-20T06:12:46.179Z,19.99
2018-12-20T06:13:48.658Z,19.97
2018-12-20T06:14:51.116Z,19.96
2018-12-20T06:15:53.590Z,19.94
2018-12-20T06:16:56.048Z,19.93
2018-12-20T06:17:58.574Z,19.93
2018-12-20T06:19:01.231Z,19.91
2018-12-20T06:20:04.680Z,19.91
2018-12-20T06:21:07.195Z,19.90
2018-12-20T06:22:09.782Z,19.89
2018-12-20T06:23:12.356Z,19.88
2018-12-20T06:24:14.818Z,19.87
2018-12-20T06:25:17.296Z,19.86
2018-12-20T06:26:19.819Z,19.85
2018-12-20T06:27:22.276Z,19.85
2018-12-20T06:28:24.785Z,19.85
2018-12-20T06:29:27.262Z,19.84
2018-12-20T06:30:29.730Z,19.85
2018-12-20T06:31:32.210Z,19.83
2018-12-20T06:32:34.696Z,19.83
2018-12-20T06:33:37.201Z,19.82
2018-12-20T06:34:39.754Z,19.82
2018-12-20T06:35:42.228Z,19.81
2018-12-20T06:36:44.690Z,19.81
2018-12-20T06:37:47.184Z,19.81
2018-12-20T06:38:49.705Z,19.80
2018-12-20T06:39:52.188Z,19.81
2018-12-20T06:40:54.653Z,19.83
2018-12-20T06:41:57.214Z,19.83
2018-12-20T06:42:59.882Z,19.84
2018-12-20T06:44:07.078Z,19.83
2018-12-20T06:45:06.988Z,19.83
2018-12-20T06:46:09.524Z,19.80
2018-12-20T06:47:12.068Z,19.76
2018-12-20T06:48:14.550Z,19.70
2018-12-20T06:49:17.134Z,19.67
2018-12-20T06:50:19.611Z,19.60
2018-12-20T06:51:22.072Z,19.58
2018-12-20T06:52:24.616Z,19.53
2018-12-20T06:53:27.096Z,19.49
2018-12-20T06:54:29.591Z,19.46
2018-12-20T06:55:32.085Z,19.43
2018-12-20T06:56:34.554Z,19.40
2018-12-20T06:57:37.034Z,19.38
2018-12-20T06:58:39.510Z,19.34
2018-12-20T06:59:42.127Z,19.29
2018-12-20T07:00:44.622Z,19.29
2018-12-20T07:01:47.085Z,19.25
2018-12-20T07:02:49.581Z,19.22
2018-12-20T07:03:52.073Z,19.18
2018-12-20T07:04:54.547Z,19.14
2018-12-20T07:05:57.022Z,19.10
2018-12-20T07:06:59.503Z,19.08
2018-12-20T07:08:01.959Z,19.04
2018-12-20T07:09:07.266Z,19.05
2018-12-20T07:10:09.772Z,19.01
2018-12-20T07:11:12.234Z,18.96
2018-12-20T07:12:14.721Z,18.93
2018-12-20T07:13:17.207Z,18.89
2018-12-20T07:14:19.754Z,18.85
2018-12-20T07:15:22.227Z,18.82
2018-12-20T07:16:29.320Z,18.75
2018-12-20T07:17:29.217Z,18.67
2018-12-20T07:18:31.710Z,18.62
2018-12-20T07:19:34.205Z,18.57
2018-12-20T07:20:36.702Z,18.54
2018-12-20T07:21:39.171Z,18.51
2018-12-20T07:22:41.657Z,18.43
2018-12-20T07:23:44.124Z,18.40
2018-12-20T07:24:46.579Z,18.40
2018-12-20T07:25:49.056Z,18.41
2018-12-20T07:26:51.520Z,18.43
2018-12-20T07:27:53.995Z,18.45
2018-12-20T07:28:56.460Z,18.50
2018-12-20T07:29:58.915Z,18.52
2018-12-20T07:31:01.430Z,18.53
2018-12-20T07:32:03.922Z,18.56
2018-12-20T07:33:06.380Z,18.56
2018-12-20T07:34:09.132Z,18.58
2018-12-20T07:35:11.620Z,18.61
2018-12-20T07:36:14.128Z,18.63
2018-12-20T07:37:16.623Z,18.66
2018-12-20T07:38:19.102Z,18.70
2018-12-20T07:39:21.557Z,18.73
2018-12-20T07:40:24.053Z,18.78
2018-12-20T07:41:26.539Z,18.83
2018-12-20T07:42:28.997Z,18.87
2018-12-20T07:43:31.477Z,18.91
2018-12-20T07:44:33.954Z,18.95
2018-12-20T07:45:36.408Z,18.97
2018-12-20T07:46:38.904Z,19.00
2018-12-20T07:47:41.397Z,19.02
2018-12-20T07:48:43.885Z,19.05
2018-12-20T07:49:46.344Z,19.05
2018-12-20T07:50:48.832Z,19.09
2018-12-20T07:51:51.330Z,19.10
2018-12-20T07:52:53.820Z,19.11
2018-12-20T07:53:56.302Z,19.13
2018-12-20T07:54:58.771Z,19.14
2018-12-20T07:56:01.253Z,19.14
2018-12-20T07:57:03.739Z,19.14
2018-12-20T07:58:06.201Z,19.15
2018-12-20T07:59:08.688Z,19.15
2018-12-20T08:00:11.294Z,19.16
2018-12-20T08:01:13.770Z,19.16
2018-12-20T08:02:16.265Z,19.17
2018-12-20T08:03:18.739Z,19.17
2018-12-20T08:04:21.211Z,19.18
2018-12-20T08:05:23.709Z,19.17
2018-12-20T08:06:26.178Z,19.17
2018-12-20T08:07:28.656Z,19.18
2018-12-20T08:08:31.119Z,19.18
2018-12-20T08:09:33.595Z,19.18
2018-12-20T08:10:36.074Z,19.18
2018-12-20T08:11:38.550Z,19.17
2018-12-20T08:12:41.064Z,19.18
2018-12-20T08:13:43.526Z,19.17
2018-12-20T08:14:45.999Z,19.17
2018-12-20T08:15:50.588Z,19.16
2018-12-20T08:16:52.990Z,19.16
2018-12-20T08:17:55.483Z,19.17
2018-12-20T08:18:57.959Z,19.17
2018-12-20T08:20:00.432Z,19.16
2018-12-20T08:21:02.985Z,19.16
2018-12-20T08:22:05.482Z,19.16
2018-12-20T08:23:07.956Z,19.15
2018-12-20T08:24:10.422Z,19.14
2018-12-20T08:25:12.914Z,19.14
2018-12-20T08:26:15.391Z,19.14
2018-12-20T08:27:18.234Z,19.13
2018-12-20T08:28:20.731Z,19.13
2018-12-20T08:29:23.207Z,19.12
2018-12-20T08:30:25.682Z,19.11
2018-12-20T08:31:28.174Z,19.11
2018-12-20T08:32:30.635Z,19.10
2018-12-20T08:33:33.127Z,19.10
2018-12-20T08:34:35.599Z,19.11
2018-12-20T08:35:38.074Z,19.10
2018-12-20T08:36:40.551Z,19.10
2018-12-20T08:37:43.054Z,19.09
2018-12-20T08:38:45.569Z,19.09
2018-12-20T08:39:48.050Z,19.08
2018-12-20T08:40:50.526Z,19.08
2018-12-20T08:41:53.013Z,19.07
2018-12-20T08:42:55.490Z,19.05
2018-12-20T08:43:57.991Z,19.06
2018-12-20T08:45:00.481Z,19.06
2018-12-20T08:46:03.049Z,19.06
2018-12-20T08:47:05.526Z,19.06
2018-12-20T08:48:08.013Z,19.06
2018-12-20T08:49:10.495Z,19.05
2018-12-20T08:50:12.954Z,19.05
2018-12-20T08:51:15.440Z,19.06
2018-12-20T08:52:17.916Z,19.06
2018-12-20T08:53:20.396Z,19.06
2018-12-20T08:54:22.905Z,19.07
2018-12-20T08:55:25.468Z,19.08
2018-12-20T08:56:27.942Z,19.08
2018-12-20T08:57:30.422Z,19.07
2018-12-20T08:58:32.913Z,19.08
2018-12-20T08:59:35.421Z,19.07
2018-12-20T09:00:37.916Z,19.08
2018-12-20T09:01:40.394Z,19.07
2018-12-20T09:02:42.855Z,19.06
2018-12-20T09:03:45.322Z,19.06
2018-12-20T09:04:48.583Z,19.06
2018-12-20T09:05:51.055Z,19.05
2018-12-20T09:06:53.508Z,19.05
2018-12-20T09:07:55.964Z,19.05
2018-12-20T09:08:58.419Z,19.05
2018-12-20T09:10:00.913Z,19.03
2018-12-20T09:11:03.403Z,19.03
2018-12-20T09:12:05.897Z,19.04
2018-12-20T09:13:09.742Z,19.02
2018-12-20T09:14:12.682Z,19.03
2018-12-20T09:15:15.174Z,19.02
2018-12-20T09:16:17.631Z,19.01
2018-12-20T09:17:20.103Z,19.01
2018-12-20T09:18:22.595Z,19.01
2018-12-20T09:19:25.069Z,19.01
2018-12-20T09:20:32.705Z,19.00
2018-12-20T09:21:32.039Z,19.00
2018-12-20T09:22:34.501Z,19.00
2018-12-20T09:23:36.988Z,18.99
2018-12-20T09:24:39.462Z,18.99
2018-12-20T09:25:41.968Z,18.98
2018-12-20T09:26:44.423Z,18.99
2018-12-20T09:27:46.880Z,18.98
2018-12-20T09:28:49.359Z,18.98
2018-12-20T09:29:51.840Z,18.96
2018-12-20T09:30:54.334Z,18.97
2018-12-20T09:31:56.791Z,18.97
2018-12-20T09:32:59.332Z,18.96
2018-12-20T09:34:01.846Z,18.96
2018-12-20T09:35:04.839Z,18.95
2018-12-20T09:36:07.326Z,18.96
2018-12-20T09:37:09.821Z,18.95
2018-12-20T09:38:12.294Z,18.95
2018-12-20T09:39:14.747Z,18.95
2018-12-20T09:40:17.218Z,18.95
2018-12-20T09:41:19.731Z,18.93
2018-12-20T09:42:22.199Z,18.93
2018-12-20T09:43:25.014Z,18.92
2018-12-20T09:44:27.663Z,18.94
2018-12-20T09:45:30.120Z,18.93
2018-12-20T09:46:32.596Z,18.93
2018-12-20T09:47:40.772Z,18.92
2018-12-20T09:48:43.250Z,18.91
2018-12-20T09:49:45.734Z,18.91
2018-12-20T09:50:48.301Z,18.91
2018-12-20T09:51:50.800Z,18.91
2018-12-20T09:52:53.265Z,18.90
2018-12-20T09:53:55.734Z,18.91
2018-12-20T09:54:58.217Z,18.90
2018-12-20T09:56:00.684Z,18.90
2018-12-20T09:57:03.241Z,18.90
2018-12-20T09:58:05.720Z,18.89
2018-12-20T09:59:08.180Z,18.88
2018-12-20T10:00:10.709Z,18.88
2018-12-20T10:01:13.204Z,18.88
2018-12-20T10:02:15.692Z,18.88
2018-12-20T10:03:18.177Z,18.88
2018-12-20T10:04:20.658Z,18.87
2018-12-20T10:05:23.145Z,18.87
2018-12-20T10:06:25.636Z,18.86
2018-12-20T10:07:28.142Z,18.87
2018-12-20T10:08:30.621Z,18.86
2018-12-20T10:09:33.090Z,18.87
2018-12-20T10:10:35.566Z,18.87
2018-12-20T10:11:38.068Z,18.86
2018-12-20T10:12:40.554Z,18.86
2018-12-20T10:13:43.024Z,18.87
2018-12-20T10:14:45.513Z,18.86
2018-12-20T10:15:47.972Z,18.86
2018-12-20T10:16:50.447Z,18.85
2018-12-20T10:17:52.943Z,18.86
2018-12-20T10:18:55.418Z,18.85
2018-12-20T10:19:57.898Z,18.85
2018-12-20T10:21:00.388Z,18.84
2018-12-20T10:22:02.867Z,18.85
2018-12-20T10:23:05.378Z,18.84
2018-12-20T10:24:07.858Z,18.84
2018-12-20T10:25:10.421Z,18.83
2018-12-20T10:26:12.893Z,18.84
2018-12-20T10:27:15.362Z,18.83
2018-12-20T10:28:17.840Z,18.84
2018-12-20T10:29:20.310Z,18.83
2018-12-20T10:30:22.772Z,18.83
2018-12-20T10:31:25.236Z,18.82
2018-12-20T10:32:27.790Z,18.82
2018-12-20T10:33:30.283Z,18.83
2018-12-20T10:34:32.759Z,18.82
2018-12-20T10:35:36.794Z,18.82
2018-12-20T10:36:39.286Z,18.81
2018-12-20T10:37:41.777Z,18.82
2018-12-20T10:38:44.271Z,18.82
2018-12-20T10:39:46.765Z,18.83
2018-12-20T10:40:49.233Z,18.86
2018-12-20T10:41:51.706Z,18.85
2018-12-20T10:42:54.271Z,18.86
2018-12-20T10:43:56.815Z,18.86
2018-12-20T10:44:59.290Z,18.87
2018-12-20T10:46:01.781Z,18.88
2018-12-20T10:47:09.971Z,18.89
2018-12-20T10:48:12.430Z,18.90
2018-12-20T10:49:14.998Z,18.89
2018-12-20T10:50:17.464Z,18.90
2018-12-20T10:51:19.938Z,18.91
2018-12-20T10:52:22.414Z,18.91
2018-12-20T10:53:24.887Z,18.91
2018-12-20T10:54:27.368Z,18.91
2018-12-20T10:55:29.846Z,18.92
2018-12-20T10:56:32.372Z,18.92
2018-12-20T10:57:34.829Z,18.92
2018-12-20T10:58:37.338Z,18.91
2018-12-20T10:59:39.857Z,18.92
2018-12-20T11:00:48.022Z,18.92
2018-12-20T11:01:52.634Z,18.92
2018-12-20T11:03:00.779Z,18.91
2018-12-20T11:04:08.786Z,18.90
2018-12-20T11:05:16.869Z,18.91
2018-12-20T11:06:25.030Z,18.90
2018-12-20T11:07:33.230Z,18.90
2018-12-20T11:08:37.693Z,18.89
2018-12-20T11:09:45.854Z,18.89
2018-12-20T11:10:50.391Z,18.89
2018-12-20T11:11:58.506Z,18.88
2018-12-20T11:13:02.944Z,18.87
2018-12-20T11:14:05.403Z,18.87
2018-12-20T11:15:08.003Z,18.86
2018-12-20T11:16:10.497Z,18.85
2018-12-20T11:17:12.988Z,18.87
2018-12-20T11:18:15.458Z,18.85
2018-12-20T11:19:17.930Z,18.85
2018-12-20T11:20:20.414Z,18.84
2018-12-20T11:21:22.888Z,18.84
2018-12-20T11:22:25.426Z,18.83
2018-12-20T11:23:27.879Z,18.83
2018-12-20T11:24:30.339Z,18.83
2018-12-20T11:25:32.792Z,18.82
2018-12-20T11:26:35.290Z,18.82
2018-12-20T11:27:37.782Z,18.81
2018-12-20T11:28:40.503Z,18.81
2018-12-20T11:29:43.005Z,18.80
2018-12-20T11:30:45.469Z,18.80
2018-12-20T11:31:47.941Z,18.81
2018-12-20T11:32:50.410Z,18.82
2018-12-20T11:33:52.884Z,18.82
2018-12-20T11:34:55.354Z,18.83
2018-12-20T11:35:57.834Z,18.84
2018-12-20T11:37:00.329Z,18.85
2018-12-20T11:38:02.821Z,18.86
2018-12-20T11:39:08.484Z,18.86
2018-12-20T11:40:10.920Z,18.87
2018-12-20T11:41:13.391Z,18.87
2018-12-20T11:42:16.099Z,18.87
2018-12-20T11:43:18.639Z,18.89
2018-12-20T11:44:21.128Z,18.89
2018-12-20T11:45:23.606Z,18.89
2018-12-20T11:46:26.074Z,18.89
2018-12-20T11:47:28.810Z,18.90
2018-12-20T11:48:31.384Z,18.89
2018-12-20T11:49:33.854Z,18.88
2018-12-20T11:50:36.326Z,18.88
2018-12-20T11:51:38.820Z,18.89
2018-12-20T11:52:42.401Z,18.89
2018-12-20T11:53:45.362Z,18.88
2018-12-20T11:54:47.834Z,18.88
2018-12-20T11:55:50.330Z,18.87
2018-12-20T11:56:52.787Z,18.87
2018-12-20T11:57:55.298Z,18.89
2018-12-20T11:58:57.797Z,18.88
2018-12-20T12:00:00.270Z,18.87
2018-12-20T12:01:02.858Z,18.88
2018-12-20T12:02:05.416Z,18.87
2018-12-20T12:03:07.929Z,18.86
2018-12-20T12:04:10.436Z,18.86
2018-12-20T12:05:12.899Z,18.86
2018-12-20T12:06:15.378Z,18.86
2018-12-20T12:07:17.867Z,18.85
2018-12-20T12:08:20.381Z,18.84
2018-12-20T12:09:22.850Z,18.85
2018-12-20T12:10:25.312Z,18.83
2018-12-20T12:11:27.789Z,18.83
2018-12-20T12:12:30.271Z,18.83
2018-12-20T12:13:32.767Z,18.83
2018-12-20T12:14:35.245Z,18.83
2018-12-20T12:15:37.721Z,18.82
2018-12-20T12:16:40.206Z,18.81
2018-12-20T12:17:42.696Z,18.80
2018-12-20T12:18:45.193Z,18.81
2018-12-20T12:19:47.715Z,18.79
2018-12-20T12:20:50.209Z,18.79
2018-12-20T12:21:52.668Z,18.80
2018-12-20T12:22:55.124Z,18.80
2018-12-20T12:23:57.633Z,18.80
2018-12-20T12:25:00.092Z,18.81
2018-12-20T12:26:02.551Z,18.82
2018-12-20T12:27:05.018Z,18.83
2018-12-20T12:28:07.494Z,18.83
2018-12-20T12:29:10.019Z,18.85
2018-12-20T12:30:12.567Z,18.85
2018-12-20T12:31:15.125Z,18.86
2018-12-20T12:32:17.579Z,18.86
2018-12-20T12:33:20.047Z,18.87
2018-12-20T12:34:22.546Z,18.87
2018-12-20T12:35:25.049Z,18.87
2018-12-20T12:36:27.604Z,18.88
2018-12-20T12:37:30.097Z,18.87
2018-12-20T12:38:32.586Z,18.86
2018-12-20T12:39:35.158Z,18.87
2018-12-20T12:40:37.647Z,18.87
2018-12-20T12:41:40.124Z,18.87
2018-12-20T12:42:42.613Z,18.86
2018-12-20T12:43:45.075Z,18.86
2018-12-20T12:44:47.566Z,18.86
2018-12-20T12:45:50.041Z,18.87
2018-12-20T12:46:52.519Z,18.87
2018-12-20T12:48:03.615Z,18.86
2018-12-20T12:49:05.103Z,18.88
2018-12-20T12:50:07.738Z,18.88
2018-12-20T12:51:10.572Z,18.89
2018-12-20T12:52:13.046Z,18.90
2018-12-20T12:53:15.527Z,18.90
2018-12-20T12:54:18.017Z,18.89
2018-12-20T12:55:20.517Z,18.90
2018-12-20T12:56:22.976Z,18.91
2018-12-20T12:57:25.465Z,18.92
2018-12-20T12:58:27.938Z,18.91
2018-12-20T12:59:30.428Z,18.91
2018-12-20T13:00:32.933Z,18.92
2018-12-20T13:01:35.425Z,18.94
2018-12-20T13:02:37.898Z,18.92
2018-12-20T13:03:40.442Z,18.92
2018-12-20T13:04:42.904Z,18.92
2018-12-20T13:05:45.399Z,18.90
2018-12-20T13:06:47.894Z,18.91
2018-12-20T13:07:50.347Z,18.90
2018-12-20T13:08:52.819Z,18.90
2018-12-20T13:09:55.297Z,18.91
2018-12-20T13:10:58.409Z,18.89
2018-12-20T13:12:01.105Z,18.90
2018-12-20T13:13:03.561Z,18.91
2018-12-20T13:14:06.045Z,18.91
2018-12-20T13:15:10.666Z,18.92
2018-12-20T13:16:13.148Z,18.92
2018-12-20T13:17:15.652Z,18.93
2018-12-20T13:18:18.126Z,18.94
2018-12-20T13:19:20.606Z,18.94
2018-12-20T13:20:23.084Z,18.95
2018-12-20T13:21:25.556Z,18.95
2018-12-20T13:22:28.109Z,18.95
2018-12-20T13:23:30.588Z,18.95
2018-12-20T13:24:33.059Z,18.95
2018-12-20T13:25:35.549Z,18.96
2018-12-20T13:26:38.034Z,18.94
2018-12-20T13:27:40.515Z,18.95
2018-12-20T13:28:43.005Z,18.95